Time;durP1;ratioP1;P1;durP2;ratioP2;P2;SDS_P1;SDS_P2;PMS_P1;PMS_P2;Temp;Humidity;BMP_temperature;BMP_pressure;BME280_temperature;BME280_humidity;BME280_pressure;Samples;Min_cycle;Max_cycle;Signal;HPM_P1;HPM_P2
2023/12/14 00:02:18;;;;;;;6.38;3.00;;;;;;;3.99;100.00;92864.03;5050963;28;20110;-62
2023/12/14 00:05:06;;;;;;;6.72;2.80;;;;;;;4.09;100.00;92864.34;5052290;28;20051;-62
2023/12/14 00:07:53;;;;;;;7.53;2.95;;;;;;;3.95;100.00;92863.28;5050836;28;20049;-62
2023/12/14 00:10:40;;;;;;;10.70;3.60;;;;;;;3.50;100.00;92873.25;5051542;28;20077;-62
2023/12/14 00:13:27;;;;;;;12.47;4.53;;;;;;;3.44;100.00;92875.63;5051452;28;20411;-62
2023/12/14 00:16:13;;;;;;;15.68;7.60;;;;;;;3.36;100.00;92874.88;5052384;28;20056;-63
2023/12/14 00:19:00;;;;;;;13.75;6.28;;;;;;;3.56;100.00;92877.09;5055588;28;20048;-61
2023/12/14 00:21:48;;;;;;;11.30;5.28;;;;;;;3.59;100.00;92877.06;5050004;28;20052;-61
2023/12/14 00:24:35;;;;;;;13.70;5.50;;;;;;;3.63;100.00;92884.44;5051425;28;20061;-60
2023/12/14 00:27:21;;;;;;;15.23;6.77;;;;;;;3.75;100.00;92895.59;5065398;28;20052;-61
2023/12/14 00:30:09;;;;;;;10.45;3.88;;;;;;;3.65;100.00;92888.28;5051314;28;20057;-61
2023/12/14 00:32:56;;;;;;;8.95;3.95;;;;;;;3.58;100.00;92891.81;5050799;28;20102;-61
2023/12/14 00:35:43;;;;;;;7.45;3.30;;;;;;;3.62;100.00;92897.22;5063326;28;20051;-61
2023/12/14 00:38:30;;;;;;;7.57;3.22;;;;;;;3.78;100.00;92902.16;5054711;28;20041;-61
2023/12/14 00:41:17;;;;;;;7.67;3.23;;;;;;;3.79;100.00;92909.16;5068870;28;20394;-62
2023/12/14 00:44:04;;;;;;;6.93;3.22;;;;;;;3.93;100.00;92913.72;5067774;28;20055;-62
2023/12/14 00:46:51;;;;;;;4.97;2.60;;;;;;;3.89;100.00;92910.25;5058402;28;20045;-62
2023/12/14 00:49:38;;;;;;;6.28;2.78;;;;;;;3.77;100.00;92916.91;5066330;28;20044;-63
2023/12/14 00:52:25;;;;;;;8.38;3.53;;;;;;;3.63;100.00;92917.00;5064188;28;20052;-64
2023/12/14 00:55:12;;;;;;;12.18;5.18;;;;;;;3.52;100.00;92936.00;5089862;28;20444;-63
2023/12/14 00:57:59;;;;;;;9.25;3.50;;;;;;;3.66;100.00;92932.47;5089298;28;20055;-64
2023/12/14 01:00:46;;;;;;;7.35;3.58;;;;;;;3.70;100.00;92928.59;5084551;28;20078;-64
2023/12/14 01:03:33;;;;;;;9.68;3.60;;;;;;;3.86;100.00;92943.59;5090054;28;20052;-64
2023/12/14 01:06:20;;;;;;;8.93;4.40;;;;;;;3.91;100.00;92945.91;5089954;28;20055;-64
2023/12/14 01:09:08;;;;;;;8.80;4.30;;;;;;;3.50;100.00;92946.50;5089531;28;20106;-65
2023/12/14 01:11:55;;;;;;;8.82;4.15;;;;;;;3.25;100.00;92950.06;5090415;28;20044;-65
2023/12/14 01:14:41;;;;;;;8.27;3.90;;;;;;;3.35;100.00;92956.63;5089365;28;20586;-65
2023/12/14 01:17:29;;;;;;;8.98;4.15;;;;;;;3.55;100.00;92948.81;5090701;28;20040;-65
2023/12/14 01:20:16;;;;;;;12.63;5.30;;;;;;;3.70;100.00;92965.78;5090405;28;20624;-66
2023/12/14 01:23:03;;;;;;;11.43;5.17;;;;;;;3.84;100.00;92960.28;5093386;28;20052;-66
2023/12/14 01:25:50;;;;;;;69.63;28.23;;;;;;;3.85;100.00;92966.50;5086032;28;20178;-66
2023/12/14 01:28:37;;;;;;;22.88;10.43;;;;;;;3.85;100.00;92967.25;5083018;28;20514;-66
2023/12/14 01:31:24;;;;;;;12.52;5.55;;;;;;;3.85;100.00;92975.41;5094934;28;20374;-67
2023/12/14 01:34:12;;;;;;;10.05;5.40;;;;;;;3.89;100.00;92980.81;5101011;28;20047;-67
2023/12/14 01:36:59;;;;;;;10.23;5.10;;;;;;;3.73;100.00;92979.34;5103309;28;20420;-68
2023/12/14 01:39:46;;;;;;;16.52;7.63;;;;;;;2.77;100.00;92993.91;5112999;28;20047;-66
2023/12/14 01:42:33;;;;;;;12.05;5.88;;;;;;;3.36;100.00;92988.78;5112104;28;20136;-68
2023/12/14 01:45:20;;;;;;;10.25;5.47;;;;;;;3.77;100.00;92993.66;5095124;28;20132;-68
2023/12/14 01:48:07;;;;;;;10.85;5.32;;;;;;;3.83;100.00;92991.31;5110762;28;20043;-68
2023/12/14 01:50:55;;;;;;;11.33;5.57;;;;;;;3.80;100.00;92997.50;5093291;28;20044;-68
2023/12/14 01:53:42;;;;;;;10.50;4.95;;;;;;;3.91;100.00;93003.69;5105797;28;20055;-69
2023/12/14 01:56:29;;;;;;;10.63;5.00;;;;;;;3.84;100.00;93002.94;5113843;28;20053;-69
2023/12/14 01:59:16;;;;;;;10.23;4.60;;;;;;;3.95;100.00;92999.00;5101258;28;20511;-69
2023/12/14 02:02:05;;;;;;;7.82;3.90;;;;;;;3.94;100.00;93002.91;5111911;28;20050;-69
2023/12/14 02:04:52;;;;;;;10.93;6.57;;;;;;;3.84;100.00;93014.56;5107228;28;20450;-68
2023/12/14 02:07:39;;;;;;;11.18;6.32;;;;;;;3.67;100.00;93012.72;5093807;28;20052;-68
2023/12/14 02:10:26;;;;;;;13.38;5.65;;;;;;;3.31;100.00;93029.09;5101162;28;20134;-66
2023/12/14 02:13:13;;;;;;;11.32;5.70;;;;;;;3.09;100.00;93039.19;5107128;28;20063;-66
2023/12/14 02:16:00;;;;;;;12.32;5.47;;;;;;;3.17;100.00;93032.59;5106227;28;20093;-66
2023/12/14 02:18:47;;;;;;;10.50;5.30;;;;;;;3.40;100.00;93032.16;5102192;28;20412;-65
2023/12/14 02:21:34;;;;;;;10.13;5.25;;;;;;;3.62;100.00;93022.00;5099890;28;20047;-67
2023/12/14 02:24:20;;;;;;;12.18;5.85;;;;;;;3.73;100.00;93027.41;5102556;28;20052;-66
2023/12/14 02:27:07;;;;;;;9.77;4.45;;;;;;;3.68;100.00;93034.03;5110431;28;20047;-66
2023/12/14 02:29:54;;;;;;;8.30;4.28;;;;;;;3.64;100.00;93040.59;5112110;28;20040;-66
2023/12/14 02:32:42;;;;;;;9.43;3.90;;;;;;;3.70;100.00;93031.69;5113077;28;20054;-67
2023/12/14 02:35:29;;;;;;;8.50;4.00;;;;;;;3.70;100.00;93041.75;5112374;28;20079;-66
2023/12/14 02:38:15;;;;;;;8.45;4.20;;;;;;;3.70;100.00;93044.47;5099214;28;20049;-66
2023/12/14 02:41:03;;;;;;;9.27;4.63;;;;;;;3.71;100.00;93046.78;5111524;28;20043;-66
2023/12/14 02:43:50;;;;;;;10.00;4.93;;;;;;;3.78;100.00;93052.22;5103121;28;20508;-65
2023/12/14 02:46:37;;;;;;;9.90;4.70;;;;;;;3.50;100.00;93060.41;5106185;28;20110;-66
2023/12/14 02:49:24;;;;;;;10.93;4.68;;;;;;;3.40;100.00;93070.91;5106160;28;20413;-66
2023/12/14 02:52:10;;;;;;;7.90;4.13;;;;;;;3.25;100.00;93072.09;5091326;28;20079;-66
2023/12/14 02:54:57;;;;;;;11.88;5.28;;;;;;;3.33;100.00;93070.16;5097735;28;20040;-66
2023/12/14 02:57:44;;;;;;;9.80;4.40;;;;;;;3.56;100.00;93062.34;5090921;28;20374;-66
2023/12/14 03:00:31;;;;;;;10.87;4.60;;;;;;;3.59;100.00;93066.22;5105059;28;20051;-66
2023/12/14 03:03:18;;;;;;;10.90;4.60;;;;;;;3.72;100.00;93078.19;5102401;28;20041;-66
2023/12/14 03:06:05;;;;;;;11.85;6.65;;;;;;;3.73;100.00;93065.41;5103140;28;20617;-66
2023/12/14 03:08:52;;;;;;;13.50;7.88;;;;;;;3.72;100.00;93080.91;5105881;28;20051;-66
2023/12/14 03:11:39;;;;;;;10.52;5.30;;;;;;;3.47;100.00;93080.97;5105140;28;20485;-66
2023/12/14 03:14:32;;;;;;;16.67;5.03;;;;;;;3.28;100.00;93084.88;5108496;28;20054;-66
2023/12/14 03:17:19;;;;;;;11.68;4.60;;;;;;;3.29;100.00;93088.34;5106443;28;20047;-66
2023/12/14 03:20:07;;;;;;;7.93;3.92;;;;;;;3.38;100.00;93091.44;5107775;28;20051;-66
2023/12/14 03:22:54;;;;;;;7.20;3.58;;;;;;;3.41;100.00;93093.38;5108131;28;20040;-66
2023/12/14 03:25:41;;;;;;;9.35;4.35;;;;;;;3.30;100.00;93089.91;5107874;28;20051;-65
2023/12/14 03:28:28;;;;;;;8.88;4.25;;;;;;;3.30;100.00;93093.41;5110029;28;20066;-66
2023/12/14 03:31:14;;;;;;;7.10;3.78;;;;;;;3.36;100.00;93096.47;5109646;28;20117;-66
2023/12/14 03:34:02;;;;;;;6.20;3.20;;;;;;;3.43;100.00;93106.56;5099099;28;20479;-66
2023/12/14 03:36:49;;;;;;;5.95;3.03;;;;;;;3.44;100.00;93105.38;5081042;28;20043;-66
2023/12/14 03:39:36;;;;;;;8.60;3.53;;;;;;;3.44;100.00;93108.88;5089682;28;20036;-66
2023/12/14 03:42:23;;;;;;;6.70;3.60;;;;;;;3.24;100.00;93113.13;5085228;28;20064;-66
2023/12/14 03:45:10;;;;;;;51.88;21.95;;;;;;;3.33;100.00;93125.16;5088111;28;20056;-66
2023/12/14 03:47:57;;;;;;;17.98;7.88;;;;;;;3.45;100.00;93121.25;5088511;28;20068;-66
2023/12/14 03:50:44;;;;;;;8.48;4.20;;;;;;;3.47;100.00;93127.06;5080592;28;20208;-67
2023/12/14 03:53:31;;;;;;;4.70;2.55;;;;;;;3.20;100.00;93135.63;5084993;28;20052;-66
2023/12/14 03:56:18;;;;;;;4.27;2.03;;;;;;;3.30;100.00;93133.28;5084467;28;20401;-66
2023/12/14 03:59:05;;;;;;;5.03;2.58;;;;;;;3.42;100.00;93145.66;5088118;28;20131;-66
2023/12/14 04:01:52;;;;;;;4.55;2.65;;;;;;;3.48;100.00;93153.06;5084280;28;20044;-66
2023/12/14 04:04:40;;;;;;;5.00;2.50;;;;;;;3.45;100.00;93161.19;5087043;28;20488;-66
2023/12/14 04:07:26;;;;;;;21.08;4.93;;;;;;;3.34;100.00;93161.16;5087135;28;20052;-66
2023/12/14 04:10:14;;;;;;;35.35;4.82;;;;;;;2.99;100.00;93168.91;5087182;28;20063;-66
2023/12/14 04:13:00;;;;;;;45.33;3.75;;;;;;;2.48;100.00;93169.19;5084151;28;20049;-66
2023/12/14 04:15:47;;;;;;;62.63;4.18;;;;;;;2.42;100.00;93176.91;5081682;28;20047;-64
2023/12/14 04:18:34;;;;;;;15.88;3.83;;;;;;;2.69;100.00;93180.06;5090121;28;20501;-66
2023/12/14 04:21:21;;;;;;;70.88;7.30;;;;;;;2.88;100.00;93184.38;5083093;28;20052;-66
2023/12/14 04:24:09;;;;;;;23.92;6.57;;;;;;;2.95;100.00;93184.38;5088164;28;20048;-66
2023/12/14 04:26:56;;;;;;;52.63;5.20;;;;;;;2.95;100.00;93194.47;5087755;28;20047;-66
2023/12/14 04:29:43;;;;;;;57.47;5.53;;;;;;;2.89;100.00;93196.75;5086183;28;20051;-66
2023/12/14 04:32:30;;;;;;;8.90;3.53;;;;;;;3.04;100.00;93197.59;5085321;28;20405;-66
2023/12/14 04:35:17;;;;;;;31.88;4.75;;;;;;;2.98;100.00;93193.69;5102509;28;20048;-66
2023/12/14 04:38:04;;;;;;;8.80;3.63;;;;;;;3.09;100.00;93204.56;5105550;28;20044;-66
2023/12/14 04:40:52;;;;;;;84.72;5.47;;;;;;;3.00;100.00;93204.94;5104887;28;20075;-66
2023/12/14 04:43:39;;;;;;;40.33;5.55;;;;;;;3.06;100.00;93203.41;5108962;28;20172;-66
2023/12/14 04:46:26;;;;;;;37.00;4.93;;;;;;;2.83;100.00;93219.22;5102412;28;20073;-66
2023/12/14 04:49:13;;;;;;;37.60;5.65;;;;;;;2.91;100.00;93218.84;5107853;28;20089;-66
2023/12/14 04:52:00;;;;;;;33.57;5.00;;;;;;;2.77;100.00;93225.00;5107353;28;20047;-66
2023/12/14 04:54:47;;;;;;;48.60;5.68;;;;;;;2.83;100.00;93230.81;5104450;28;20048;-66
2023/12/14 04:57:34;;;;;;;14.27;5.00;;;;;;;3.07;100.00;93242.13;5105227;28;20047;-66
2023/12/14 05:00:21;;;;;;;33.58;7.60;;;;;;;3.16;100.00;93246.00;5110594;28;20047;-66
2023/12/14 05:03:08;;;;;;;16.45;6.18;;;;;;;3.18;100.00;93246.41;5108686;28;20848;-66
2023/12/14 05:05:55;;;;;;;11.77;4.60;;;;;;;3.19;100.00;93253.34;5092415;28;20385;-66
2023/12/14 05:08:42;;;;;;;21.05;6.78;;;;;;;3.15;100.00;93258.00;5108598;28;20113;-66
2023/12/14 05:11:29;;;;;;;11.20;3.90;;;;;;;2.98;100.00;93256.03;5111278;28;20071;-66
2023/12/14 05:14:16;;;;;;;9.23;3.75;;;;;;;3.12;100.00;93260.69;5109626;28;20496;-66
2023/12/14 05:17:03;;;;;;;10.38;4.22;;;;;;;3.11;100.00;93261.88;5094236;28;20147;-66
2023/12/14 05:19:50;;;;;;;8.83;4.40;;;;;;;3.09;100.00;93270.38;5109541;28;20416;-65
2023/12/14 05:22:37;;;;;;;9.27;4.50;;;;;;;3.17;100.00;93260.34;5104816;28;20052;-65
2023/12/14 05:25:24;;;;;;;10.27;4.63;;;;;;;3.11;100.00;93268.06;5103479;28;20059;-65
2023/12/14 05:28:11;;;;;;;8.18;3.80;;;;;;;3.13;100.00;93271.16;5091421;28;20408;-65
2023/12/14 05:30:58;;;;;;;13.20;5.53;;;;;;;2.89;100.00;93275.34;5109614;28;20051;-65
2023/12/14 05:33:45;;;;;;;10.47;4.93;;;;;;;3.10;100.00;93285.50;5110496;28;20059;-66
2023/12/14 05:36:32;;;;;;;10.07;5.05;;;;;;;3.05;100.00;93295.94;5081319;28;20039;-66
2023/12/14 05:39:19;;;;;;;10.77;4.30;;;;;;;3.30;100.00;93294.06;5112139;28;20048;-65
2023/12/14 05:42:06;;;;;;;10.82;4.05;;;;;;;3.07;100.00;93299.81;5108953;28;20047;-66
2023/12/14 05:44:53;;;;;;;9.35;4.53;;;;;;;3.09;100.00;93304.84;5105936;28;20048;-66
2023/12/14 05:47:41;;;;;;;16.17;7.20;;;;;;;3.16;100.00;93310.31;5105157;28;20412;-66
2023/12/14 05:50:28;;;;;;;18.05;6.85;;;;;;;3.12;100.00;93314.91;5110385;28;20044;-67
2023/12/14 05:53:15;;;;;;;16.90;6.07;;;;;;;3.23;100.00;93321.16;5109524;28;20052;-67
2023/12/14 05:56:02;;;;;;;15.02;6.22;;;;;;;3.17;100.00;93330.81;5103674;28;20043;-66
2023/12/14 05:58:49;;;;;;;15.07;5.95;;;;;;;3.23;100.00;93329.28;5111551;28;20047;-66
2023/12/14 06:01:36;;;;;;;15.67;5.73;;;;;;;2.81;100.00;93333.41;5107255;28;20135;-66
2023/12/14 06:04:25;;;;;;;17.35;7.10;;;;;;;2.68;100.00;93335.66;5110665;28;20055;-67
2023/12/14 06:07:14;;;;;;;10.02;4.70;;;;;;;2.80;100.00;93345.41;5107807;28;20404;-66
2023/12/14 06:10:01;;;;;;;12.63;5.38;;;;;;;2.66;100.00;93348.03;5107391;28;20124;-66
2023/12/14 06:12:48;;;;;;;17.83;6.68;;;;;;;2.84;100.00;93348.09;5081845;28;20041;-66
2023/12/14 06:15:35;;;;;;;14.40;5.30;;;;;;;2.83;100.00;93360.13;5087730;28;20048;-66
2023/12/14 06:18:22;;;;;;;13.73;5.38;;;;;;;2.71;100.00;93358.50;5073139;28;20045;-66
2023/12/14 06:21:11;;;;;;;11.90;4.88;;;;;;;2.72;100.00;93360.84;5073090;28;20052;-66
2023/12/14 06:23:59;;;;;;;11.05;5.57;;;;;;;2.86;100.00;93368.28;5074046;28;20044;-65
2023/12/14 06:26:46;;;;;;;8.18;4.18;;;;;;;3.05;100.00;93385.38;5073881;28;20520;-64
2023/12/14 06:32:07;;;;;;;10.65;5.90;;;;;;;3.00;100.00;93386.53;5153503;27;20179;-65
2023/12/14 06:34:54;;;;;;;10.02;5.50;;;;;;;3.04;100.00;93395.47;5135334;27;20133;-63
2023/12/14 06:37:44;;;;;;;9.70;6.18;;;;;;;2.88;100.00;93398.47;5150462;27;20047;-62
2023/12/14 06:40:30;;;;;;;8.57;5.00;;;;;;;2.63;100.00;93411.09;5149442;27;20126;-62
2023/12/14 06:43:17;;;;;;;12.00;6.20;;;;;;;2.75;100.00;93414.25;5151024;27;20047;-68
2023/12/14 06:46:04;;;;;;;9.23;5.13;;;;;;;2.87;100.00;93420.53;5135434;27;20051;-69
2023/12/14 06:48:51;;;;;;;9.20;4.45;;;;;;;2.78;100.00;93418.16;5150934;27;20134;-68
2023/12/14 06:51:38;;;;;;;9.00;4.75;;;;;;;2.85;100.00;93422.84;5149865;27;20114;-69
2023/12/14 06:54:25;;;;;;;9.23;4.47;;;;;;;2.89;100.00;93423.63;5150114;27;20380;-69
2023/12/14 06:57:12;;;;;;;9.05;4.35;;;;;;;2.75;100.00;93424.31;5150909;27;20050;-69
2023/12/14 06:59:59;;;;;;;10.52;4.97;;;;;;;2.96;100.00;93434.53;5121807;27;20046;-69
2023/12/14 07:02:46;;;;;;;16.15;6.30;;;;;;;2.96;100.00;93439.97;5134889;27;20046;-69
2023/12/14 07:05:33;;;;;;;11.45;6.10;;;;;;;2.76;100.00;93442.16;5149025;27;20039;-69
2023/12/14 07:08:20;;;;;;;9.77;4.90;;;;;;;2.88;100.00;93446.47;5141274;27;20119;-69
2023/12/14 07:11:11;;;;;;;8.30;4.70;;;;;;;3.00;100.00;93451.59;5148643;27;20064;-69
2023/12/14 07:13:58;;;;;;;11.82;7.45;;;;;;;3.02;100.00;93452.00;5150116;27;20460;-68
2023/12/14 07:16:45;;;;;;;10.75;5.53;;;;;;;2.70;100.00;93462.63;5149851;27;20418;-69
2023/12/14 07:19:32;;;;;;;11.23;5.43;;;;;;;2.93;100.00;93468.56;5150452;27;20062;-69
2023/12/14 07:22:19;;;;;;;10.90;5.47;;;;;;;2.93;100.00;93479.41;5149589;27;20050;-69
2023/12/14 07:25:06;;;;;;;11.30;5.82;;;;;;;3.11;100.00;93482.25;5134739;27;20051;-69
2023/12/14 07:27:53;;;;;;;16.42;6.57;;;;;;;3.11;100.00;93484.19;5149985;27;20057;-69
2023/12/14 07:30:40;;;;;;;13.25;6.85;;;;;;;3.24;100.00;93490.06;5149111;27;20333;-69
2023/12/14 07:33:27;;;;;;;14.70;7.43;;;;;;;3.13;100.00;93495.41;5134577;27;20046;-69
2023/12/14 07:36:14;;;;;;;16.30;6.10;;;;;;;3.21;100.00;93502.44;5150021;27;20172;-68
2023/12/14 07:39:01;;;;;;;13.02;6.43;;;;;;;3.25;100.00;93500.53;5149781;27;20127;-69
2023/12/14 07:41:48;;;;;;;14.73;7.20;;;;;;;3.26;100.00;93512.16;5144328;27;20096;-68
2023/12/14 07:44:35;;;;;;;16.38;8.05;;;;;;;3.32;100.00;93514.13;5120666;27;20042;-68
2023/12/14 07:47:22;;;;;;;15.35;7.50;;;;;;;3.38;100.00;93511.81;5135290;27;20051;-69
2023/12/14 07:50:09;;;;;;;13.90;6.70;;;;;;;3.05;100.00;93524.41;5134718;27;20043;-68
2023/12/14 07:52:56;;;;;;;14.25;7.50;;;;;;;3.20;100.00;93525.31;5135671;27;20502;-68
2023/12/14 07:55:43;;;;;;;14.02;6.93;;;;;;;3.29;100.00;93530.38;5135439;27;20047;-69
2023/12/14 07:58:30;;;;;;;18.65;7.40;;;;;;;3.32;100.00;93538.53;5119886;27;20053;-69
2023/12/14 08:01:17;;;;;;;15.48;8.07;;;;;;;3.28;100.00;93537.75;5135215;27;20100;-69
2023/12/14 08:04:04;;;;;;;17.27;8.97;;;;;;;3.43;100.00;93548.69;5135118;27;20043;-69
2023/12/14 08:06:51;;;;;;;13.18;6.70;;;;;;;3.58;100.00;93548.38;5134742;27;20055;-69
2023/12/14 08:09:38;;;;;;;13.50;7.30;;;;;;;3.90;100.00;93549.66;5134672;27;20054;-69
2023/12/14 08:12:26;;;;;;;13.38;6.90;;;;;;;3.73;100.00;93556.59;5134966;27;20039;-68
2023/12/14 08:15:13;;;;;;;15.52;8.15;;;;;;;3.85;100.00;93560.91;5134841;27;20484;-69
2023/12/14 08:18:00;;;;;;;17.43;8.33;;;;;;;3.95;100.00;93565.59;5134588;27;20054;-69
2023/12/14 08:20:47;;;;;;;16.00;7.60;;;;;;;3.98;100.00;93572.97;5125856;27;20122;-69
2023/12/14 08:23:34;;;;;;;18.08;7.57;;;;;;;4.00;100.00;93582.31;5134285;27;20054;-69
2023/12/14 08:26:21;;;;;;;14.85;7.10;;;;;;;3.42;100.00;93591.31;5119463;27;20506;-69
2023/12/14 08:29:08;;;;;;;15.80;8.80;;;;;;;3.17;100.00;93591.91;5134607;27;20050;-69
2023/12/14 08:31:57;;;;;;;13.47;6.30;;;;;;;3.45;100.00;93593.25;5134670;27;20134;-69
2023/12/14 08:34:44;;;;;;;14.98;7.60;;;;;;;3.78;100.00;93602.34;5134057;27;20046;-69
2023/12/14 08:37:31;;;;;;;18.50;8.55;;;;;;;4.00;100.00;93604.03;5134186;27;20043;-69
2023/12/14 08:40:18;;;;;;;15.00;8.10;;;;;;;4.22;100.00;93603.31;5135576;27;20096;-69
2023/12/14 08:43:05;;;;;;;15.30;8.35;;;;;;;4.30;100.00;93611.09;5121566;27;20047;-69
2023/12/14 08:45:52;;;;;;;13.40;7.43;;;;;;;4.34;100.00;93613.84;5134382;27;20043;-68
2023/12/14 08:48:39;;;;;;;14.00;7.93;;;;;;;4.51;100.00;93629.44;5117651;27;20079;-68
2023/12/14 08:51:26;;;;;;;19.63;7.68;;;;;;;4.50;100.00;93635.25;5133806;27;20047;-69
2023/12/14 08:54:13;;;;;;;14.82;7.30;;;;;;;4.54;100.00;93636.03;5133657;27;20055;-69
2023/12/14 08:57:01;;;;;;;17.65;7.57;;;;;;;4.60;100.00;93640.72;5122955;27;20062;-69
2023/12/14 08:59:48;;;;;;;17.30;7.40;;;;;;;4.51;100.00;93653.91;5134073;27;20095;-69
2023/12/14 09:02:36;;;;;;;21.55;7.97;;;;;;;4.65;100.00;93653.16;5134473;27;20069;-69
2023/12/14 09:05:24;;;;;;;31.52;14.02;;;;;;;4.62;100.00;93658.59;5133648;27;20095;-69
2023/12/14 09:08:11;;;;;;;23.38;11.48;;;;;;;4.48;100.00;93665.50;5133403;27;20075;-69
2023/12/14 09:10:58;;;;;;;19.45;10.00;;;;;;;4.84;100.00;93665.63;5134326;27;20051;-69
2023/12/14 09:13:45;;;;;;;16.80;8.17;;;;;;;5.04;100.00;93668.78;5134174;27;20050;-69
2023/12/14 09:16:32;;;;;;;13.95;7.80;;;;;;;5.04;100.00;93674.22;5134008;27;20091;-69
2023/12/14 09:19:19;;;;;;;10.55;5.53;;;;;;;5.14;100.00;93672.69;5123021;27;20050;-69
2023/12/14 09:22:06;;;;;;;16.73;8.52;;;;;;;5.17;100.00;93689.00;5133411;27;20074;-69
2023/12/14 09:24:53;;;;;;;9.23;4.65;;;;;;;5.03;100.00;93685.47;5133440;27;20050;-69
2023/12/14 09:27:40;;;;;;;7.40;3.80;;;;;;;4.67;100.00;93693.53;5133844;27;20047;-69
2023/12/14 09:30:27;;;;;;;10.27;4.60;;;;;;;4.64;100.00;93694.31;5121176;27;20050;-69
2023/12/14 09:33:14;;;;;;;6.00;3.20;;;;;;;4.90;100.00;93693.22;5133459;27;20047;-69
2023/12/14 09:36:01;;;;;;;6.03;3.40;;;;;;;5.05;100.00;93697.53;5119550;27;20093;-69
2023/12/14 09:38:48;;;;;;;7.85;3.67;;;;;;;5.18;100.00;93700.66;5122577;27;20468;-69
2023/12/14 09:41:35;;;;;;;9.67;4.93;;;;;;;5.31;100.00;93709.22;5118932;27;20092;-69
2023/12/14 09:44:23;;;;;;;9.68;5.00;;;;;;;5.50;100.00;93714.31;5131580;27;20046;-70
2023/12/14 09:47:10;;;;;;;8.13;4.40;;;;;;;5.49;100.00;93720.91;5134032;27;20051;-69
2023/12/14 09:49:59;;;;;;;6.88;4.20;;;;;;;5.56;100.00;93720.91;5133458;27;20047;-69
2023/12/14 09:52:48;;;;;;;5.05;2.75;;;;;;;5.35;100.00;93729.06;5132640;27;20046;-69
2023/12/14 09:55:35;;;;;;;4.80;2.70;;;;;;;5.34;100.00;93735.69;5131660;27;20050;-70
2023/12/14 09:58:22;;;;;;;5.38;2.70;;;;;;;4.45;100.00;93736.94;5132803;27;20043;-69
2023/12/14 10:01:26;;;;;;;5.05;3.08;;;;;;;4.69;100.00;93740.13;5131855;27;20055;-69
2023/12/14 10:04:15;;;;;;;7.68;2.72;;;;;;;5.23;100.00;93743.03;5132575;27;20047;-69
2023/12/14 10:07:06;;;;;;;4.32;2.67;;;;;;;4.80;100.00;93739.00;5132621;27;20539;-69
2023/12/14 10:09:55;;;;;;;4.67;2.70;;;;;;;4.65;100.00;93748.28;5120718;27;20488;-69
2023/12/14 10:12:54;;;;;;;4.50;2.50;;;;;;;5.19;100.00;93748.44;5133180;27;20081;-69
2023/12/14 10:15:46;;;;;;;5.47;3.33;;;;;;;4.97;100.00;93751.13;5132670;27;20404;-69
2023/12/14 10:18:36;;;;;;;5.57;3.08;;;;;;;4.80;100.00;93749.91;5133295;27;20039;-69
2023/12/14 10:21:26;;;;;;;6.15;2.92;;;;;;;5.52;100.00;93749.31;5132507;27;20076;-69
2023/12/14 10:24:14;;;;;;;6.07;2.80;;;;;;;5.84;100.00;93754.00;5131695;27;20051;-69
2023/12/14 10:27:09;;;;;;;6.90;2.90;;;;;;;5.79;100.00;93760.59;5120806;27;20043;-68
2023/12/14 10:29:56;;;;;;;5.53;2.38;;;;;;;5.76;100.00;93754.00;5117082;28;20410;-69
2023/12/14 10:32:44;;;;;;;5.28;2.47;;;;;;;5.74;100.00;93761.00;5131432;28;20111;-69
2023/12/14 10:35:31;;;;;;;6.70;3.17;;;;;;;5.74;100.00;93755.56;5132487;28;20070;-69
2023/12/14 10:38:19;;;;;;;6.67;3.27;;;;;;;5.72;100.00;93760.59;5132611;28;20046;-69
2023/12/14 10:41:07;;;;;;;5.00;2.42;;;;;;;5.94;100.00;93762.16;5131687;28;20047;-69
2023/12/14 10:43:56;;;;;;;7.80;4.13;;;;;;;6.08;100.00;93761.41;5132090;28;20051;-69
2023/12/14 10:47:07;;;;;;;5.25;2.38;;;;;;;6.24;100.00;93763.72;5132628;28;20044;-70
2023/12/14 10:49:55;;;;;;;4.43;2.15;;;;;;;6.05;100.00;93766.84;5133488;28;20047;-70
2023/12/14 10:52:42;;;;;;;4.67;2.00;;;;;;;5.66;100.00;93762.16;5131082;28;20122;-69
2023/12/14 10:55:47;;;;;;;6.22;3.28;;;;;;;5.91;100.00;93770.31;5130079;28;22183;-70
2023/12/14 10:58:54;;;;;;;6.63;2.55;;;;;;;5.40;100.00;93775.72;5121010;28;20169;-69
2023/12/14 11:01:41;;;;;;;5.25;2.47;;;;;;;5.91;100.00;93783.94;5131442;28;20134;-70
2023/12/14 11:04:29;;;;;;;6.90;2.30;;;;;;;6.17;100.00;93786.28;5131607;28;20058;-70
2023/12/14 11:07:16;;;;;;;4.87;2.50;;;;;;;6.32;100.00;93794.47;5132282;28;20131;-70
2023/12/14 11:10:03;;;;;;;10.60;4.00;;;;;;;6.33;100.00;93798.75;5132491;28;20054;-69
2023/12/14 11:12:54;;;;;;;7.38;3.50;;;;;;;6.34;100.00;93797.59;5131290;28;20502;-69
2023/12/14 11:15:52;;;;;;;4.10;1.70;;;;;;;5.94;100.00;93807.69;5132170;28;20073;-69
2023/12/14 11:18:39;;;;;;;3.78;2.00;;;;;;;6.42;100.00;93801.06;5135240;27;20043;-70
2023/12/14 11:21:26;;;;;;;4.20;2.00;;;;;;;6.62;100.00;93806.88;5135987;27;20088;-69
2023/12/14 11:24:13;;;;;;;3.08;1.40;;;;;;;6.62;100.00;93807.69;5135573;27;20480;-70
2023/12/14 11:27:04;;;;;;;4.05;1.85;;;;;;;6.26;100.00;93815.09;5137168;27;20385;-70
2023/12/14 11:29:52;;;;;;;3.13;1.60;;;;;;;6.54;100.00;93819.75;5135654;27;20059;-70
2023/12/14 11:32:39;;;;;;;4.28;2.28;;;;;;;6.33;100.00;93821.31;5120855;27;20039;-70
2023/12/14 11:35:26;;;;;;;2.73;1.60;;;;;;;6.28;100.00;93824.47;5134747;27;20042;-67
2023/12/14 11:38:13;;;;;;;3.05;1.33;;;;;;;6.18;100.00;93827.97;5135115;27;20063;-67
2023/12/14 11:41:01;;;;;;;4.57;1.50;;;;;;;6.31;100.00;93833.78;5135871;27;20054;-67
2023/12/14 11:43:48;;;;;;;10.80;5.80;;;;;;;6.09;100.00;93836.50;5123014;27;20042;-67
2023/12/14 11:46:35;;;;;;;5.65;3.20;;;;;;;6.08;100.00;93842.38;5134425;27;20543;-69
2023/12/14 11:49:29;;;;;;;4.17;2.30;;;;;;;6.30;100.00;93846.66;5135472;27;20051;-70
2023/12/14 11:52:17;;;;;;;4.10;2.00;;;;;;;6.27;100.00;93841.97;5135221;27;20051;-67
2023/12/14 11:55:05;;;;;;;3.35;1.80;;;;;;;5.95;100.00;93842.72;5123512;27;20053;-67
2023/12/14 11:57:52;;;;;;;3.75;2.00;;;;;;;6.33;100.00;93845.84;5135604;27;20047;-67
2023/12/14 12:00:40;;;;;;;3.88;1.98;;;;;;;6.47;100.00;93855.97;5135540;27;20059;-70
2023/12/14 12:03:33;;;;;;;5.97;2.50;;;;;;;6.38;100.00;93853.66;5135594;27;20126;-67
2023/12/14 12:06:21;;;;;;;5.70;2.10;;;;;;;6.56;100.00;93858.28;5134735;27;20080;-67
2023/12/14 12:09:10;;;;;;;4.35;2.30;;;;;;;6.60;100.00;93859.88;5133926;27;20047;-67
2023/12/14 12:11:57;;;;;;;4.18;1.80;;;;;;;6.88;100.00;93861.00;5136049;27;20070;-67
2023/12/14 12:14:44;;;;;;;4.10;2.15;;;;;;;6.20;100.00;93870.00;5118501;27;20552;-67
2023/12/14 12:17:37;;;;;;;5.20;1.80;;;;;;;6.47;100.00;93869.59;5134994;27;20047;-67
2023/12/14 12:20:25;;;;;;;3.53;1.98;;;;;;;6.08;100.00;93866.88;5134531;27;20043;-68
2023/12/14 12:23:13;;;;;;;3.58;1.90;;;;;;;6.19;100.00;93862.22;5134885;27;20411;-68
2023/12/14 12:26:00;;;;;;;5.15;1.70;;;;;;;6.39;100.00;93870.78;5135696;27;20426;-68
2023/12/14 12:28:48;;;;;;;2.90;1.52;;;;;;;6.02;100.00;93871.94;5134207;27;20396;-68
2023/12/14 12:31:36;;;;;;;3.07;1.43;;;;;;;5.96;100.00;93873.50;5133568;27;20055;-68
2023/12/14 12:34:23;;;;;;;2.75;1.50;;;;;;;6.09;100.00;93879.34;5134895;27;20171;-68
2023/12/14 12:37:10;;;;;;;3.05;1.40;;;;;;;6.02;100.00;93876.59;5133953;27;20043;-68
2023/12/14 12:39:57;;;;;;;3.13;1.50;;;;;;;6.24;100.00;93880.91;5133951;27;20047;-69
2023/12/14 12:42:45;;;;;;;3.08;1.65;;;;;;;6.04;100.00;93879.69;5120303;27;20070;-68
2023/12/14 12:45:32;;;;;;;6.10;2.17;;;;;;;5.88;100.00;93875.38;5122534;27;20036;-68
2023/12/14 12:48:19;;;;;;;8.65;2.90;;;;;;;5.98;100.00;93882.06;5134238;27;20051;-69
2023/12/14 12:51:08;;;;;;;3.83;1.70;;;;;;;6.15;100.00;93891.41;5133780;27;20080;-69
2023/12/14 12:53:57;;;;;;;5.95;3.20;;;;;;;6.20;100.00;93889.06;5119522;27;20078;-69
2023/12/14 12:56:58;;;;;;;9.77;2.47;;;;;;;6.19;100.00;93892.19;5126828;27;20357;-69
2023/12/14 12:59:45;;;;;;;3.60;1.90;;;;;;;6.24;100.00;93896.47;5133026;27;20046;-69
2023/12/14 13:02:32;;;;;;;5.45;2.70;;;;;;;6.18;100.00;93899.59;5131172;27;20051;-68
2023/12/14 13:05:19;;;;;;;4.15;2.10;;;;;;;5.75;100.00;93909.56;5133990;27;20401;-69
2023/12/14 13:08:07;;;;;;;4.10;2.13;;;;;;;5.76;100.00;93900.25;5134096;27;20078;-69